Goodland, Florida
Current Conditions -  °F | °C
As of 3:53 PM on Tuesday 21 Oct 2014 (Local Time) from KAPF Reporting Station
Clear Clear  
Wind Chill: 79°   Ceiling: Unl
Heat Index: 82°   Visibility: 10mi
Dew Point: 69°   Wind: 9mph
Humidity: 72%   Direction: 180°S
Pressure: 29.9"   Gusts: NA
Location:  25.92°N, 81.65°W
Report Text: KAPF 211953Z 18008KT 10SM CLR 26/21 A2990 RMK AO2 SLP122 T02610206
Loading
Personal Weather Stations






























Interactive Weather Map
Tropical Storm Tracking
New forecast layout! Learn more

10-Day Weather Forecast

Advertisements
Track Severe Weather on mobile